Time;durP1;ratioP1;P1;durP2;ratioP2;P2;SDS_P1;SDS_P2;PMS_P1;PMS_P2;Temp;Humidity;BMP_temperature;BMP_pressure;BME280_temperature;BME280_humidity;BME280_pressure;Samples;Min_cycle;Max_cycle;Signal;HPM_P1;HPM_P2
2022/04/09 00:00:01;;;;;;;0.9;0.8;;;;;;;10.1;100;92942.91;;;;
2022/04/09 00:01:02;;;;;;;0.9;0.8;;;;;;;10.1;100;92942.91;;;;
2022/04/09 00:02:03;;;;;;;0.9;0.8;;;;;;;10.1;100;92942.91;;;;
2022/04/09 00:03:04;;;;;;;0.9;0.8;;;;;;;10.1;100;92942.91;;;;
2022/04/09 00:04:05;;;;;;;1.85;0.9;;;;;;;10.22;100;92948.83;;;;
2022/04/09 00:05:06;;;;;;;1.85;0.9;;;;;;;10.22;100;92948.83;;;;
2022/04/09 00:06:08;;;;;;;1.85;0.9;;;;;;;10.22;100;92948.83;;;;
2022/04/09 00:07:09;;;;;;;1.85;0.9;;;;;;;10.22;100;92948.83;;;;
2022/04/09 00:08:09;;;;;;;1.85;0.9;;;;;;;10.22;100;92948.83;;;;
2022/04/09 00:09:10;;;;;;;1.85;0.9;;;;;;;10.22;100;92948.83;;;;
2022/04/09 00:10:10;;;;;;;1.85;0.9;;;;;;;10.22;100;92948.83;;;;
2022/04/09 00:11:13;;;;;;;1.85;0.9;;;;;;;10.22;100;92948.83;;;;
2022/04/09 00:12:14;;;;;;;1.85;0.9;;;;;;;10.22;100;92948.83;;;;
2022/04/09 00:13:14;;;;;;;1.85;0.9;;;;;;;10.22;100;92948.83;;;;
2022/04/09 00:14:15;;;;;;;1.85;0.9;;;;;;;10.22;100;92948.83;;;;
2022/04/09 00:15:16;;;;;;;1.85;1.1;;;;;;;10.53;100;92976.42;;;;
2022/04/09 00:16:16;;;;;;;1.85;1.1;;;;;;;10.53;100;92976.42;;;;
2022/04/09 00:17:17;;;;;;;1.85;1.1;;;;;;;10.53;100;92976.42;;;;
2022/04/09 00:18:17;;;;;;;1.85;1.1;;;;;;;10.53;100;92976.42;;;;
2022/04/09 00:19:18;;;;;;;1.85;1.1;;;;;;;10.53;100;92976.42;;;;
2022/04/09 00:20:19;;;;;;;1.85;1.1;;;;;;;10.53;100;92976.42;;;;
2022/04/09 00:21:19;;;;;;;1.85;1.1;;;;;;;10.53;100;92976.42;;;;
2022/04/09 00:22:20;;;;;;;1.85;1.1;;;;;;;10.53;100;92976.42;;;;
2022/04/09 00:23:20;;;;;;;1.85;1.1;;;;;;;10.53;100;92976.42;;;;
2022/04/09 00:24:21;;;;;;;1.85;1.1;;;;;;;10.53;100;92976.42;;;;
2022/04/09 00:25:23;;;;;;;1.25;0.8;;;;;;;11.17;100;93006.73;;;;
2022/04/09 00:26:24;;;;;;;1.25;0.8;;;;;;;11.17;100;93006.73;;;;
2022/04/09 00:27:24;;;;;;;1.25;0.8;;;;;;;11.17;100;93006.73;;;;
2022/04/09 00:28:25;;;;;;;1.25;0.8;;;;;;;11.17;100;93006.73;;;;
2022/04/09 00:29:25;;;;;;;1.25;0.8;;;;;;;11.17;100;93006.73;;;;
2022/04/09 00:30:26;;;;;;;1.25;0.8;;;;;;;11.17;100;93006.73;;;;
2022/04/09 00:31:26;;;;;;;1.25;0.8;;;;;;;11.17;100;93006.73;;;;
2022/04/09 00:32:27;;;;;;;1.25;0.8;;;;;;;11.17;100;93006.73;;;;
2022/04/09 00:33:28;;;;;;;1.25;0.8;;;;;;;11.17;100;93006.73;;;;
2022/04/09 00:34:28;;;;;;;1.25;0.8;;;;;;;11.17;100;93006.73;;;;
2022/04/09 00:35:29;;;;;;;1.25;0.8;;;;;;;11.17;100;93006.73;;;;
2022/04/09 00:36:29;;;;;;;1.2;1;;;;;;;11.59;100;93054.41;;;;
2022/04/09 00:37:30;;;;;;;1.2;1;;;;;;;11.59;100;93054.41;;;;
2022/04/09 00:38:30;;;;;;;1.2;1;;;;;;;11.59;100;93054.41;;;;
2022/04/09 00:39:31;;;;;;;1.2;1;;;;;;;11.59;100;93054.41;;;;
2022/04/09 00:40:31;;;;;;;1.2;1;;;;;;;11.59;100;93054.41;;;;
2022/04/09 00:41:32;;;;;;;1.2;1;;;;;;;11.59;100;93054.41;;;;
2022/04/09 00:42:32;;;;;;;1.2;1;;;;;;;11.59;100;93054.41;;;;
2022/04/09 00:43:34;;;;;;;1.2;1;;;;;;;11.59;100;93054.41;;;;
2022/04/09 00:44:38;;;;;;;1.2;1;;;;;;;11.59;100;93054.41;;;;
2022/04/09 00:45:40;;;;;;;1.2;1;;;;;;;11.59;100;93054.41;;;;
2022/04/09 00:46:40;;;;;;;2.1;1.1;;;;;;;11.66;100;93095.03;;;;
2022/04/09 00:47:41;;;;;;;2.1;1.1;;;;;;;11.66;100;93095.03;;;;
2022/04/09 00:48:42;;;;;;;2.1;1.1;;;;;;;11.66;100;93095.03;;;;
2022/04/09 00:49:43;;;;;;;2.1;1.1;;;;;;;11.66;100;93095.03;;;;
2022/04/09 00:50:43;;;;;;;2.1;1.1;;;;;;;11.66;100;93095.03;;;;
2022/04/09 00:51:44;;;;;;;2.1;1.1;;;;;;;11.66;100;93095.03;;;;
2022/04/09 00:52:45;;;;;;;2.1;1.1;;;;;;;11.66;100;93095.03;;;;
2022/04/09 00:53:48;;;;;;;2.1;1.1;;;;;;;11.66;100;93095.03;;;;
2022/04/09 00:54:52;;;;;;;2.1;1.1;;;;;;;11.66;100;93095.03;;;;
2022/04/09 00:56:26;;;;;;;2.1;1.1;;;;;;;11.66;100;93095.03;;;;
2022/04/09 00:57:27;;;;;;;2.65;1.2;;;;;;;11.2;100;93153.92;;;;
2022/04/09 00:58:32;;;;;;;2.65;1.2;;;;;;;11.2;100;93153.92;;;;
2022/04/09 00:59:34;;;;;;;2.65;1.2;;;;;;;11.2;100;93153.92;;;;
2022/04/09 01:00:36;;;;;;;2.65;1.2;;;;;;;11.2;100;93153.92;;;;
2022/04/09 01:01:36;;;;;;;2.65;1.2;;;;;;;11.2;100;93153.92;;;;
2022/04/09 01:02:39;;;;;;;2.65;1.2;;;;;;;11.2;100;93153.92;;;;
2022/04/09 01:03:41;;;;;;;2.65;1.2;;;;;;;11.2;100;93153.92;;;;
2022/04/09 01:04:42;;;;;;;2.65;1.2;;;;;;;11.2;100;93153.92;;;;
2022/04/09 01:05:43;;;;;;;2.65;1.2;;;;;;;11.2;100;93153.92;;;;
2022/04/09 01:06:44;;;;;;;2.65;1.2;;;;;;;11.2;100;93153.92;;;;
2022/04/09 01:07:46;;;;;;;2.65;1.2;;;;;;;11.2;100;93153.92;;;;
2022/04/09 01:08:46;;;;;;;1.75;1;;;;;;;10.38;100;93167.74;;;;
2022/04/09 01:09:47;;;;;;;1.75;1;;;;;;;10.38;100;93167.74;;;;
2022/04/09 01:10:50;;;;;;;1.75;1;;;;;;;10.38;100;93167.74;;;;
2022/04/09 01:11:50;;;;;;;1.75;1;;;;;;;10.38;100;93167.74;;;;
2022/04/09 01:12:52;;;;;;;1.75;1;;;;;;;10.38;100;93167.74;;;;
2022/04/09 01:13:52;;;;;;;1.75;1;;;;;;;10.38;100;93167.74;;;;
2022/04/09 01:14:53;;;;;;;1.75;1;;;;;;;10.38;100;93167.74;;;;
2022/04/09 01:15:54;;;;;;;1.75;1;;;;;;;10.38;100;93167.74;;;;
2022/04/09 01:16:54;;;;;;;1.75;1;;;;;;;10.38;100;93167.74;;;;
2022/04/09 01:17:55;;;;;;;1.75;1;;;;;;;10.38;100;93167.74;;;;
2022/04/09 01:18:56;;;;;;;1.45;0.8;;;;;;;9.91;100;93262.41;;;;
2022/04/09 01:19:58;;;;;;;1.45;0.8;;;;;;;9.91;100;93262.41;;;;
2022/04/09 01:20:58;;;;;;;1.45;0.8;;;;;;;9.91;100;93262.41;;;;
2022/04/09 01:22:00;;;;;;;1.45;0.8;;;;;;;9.91;100;93262.41;;;;
2022/04/09 01:23:01;;;;;;;1.45;0.8;;;;;;;9.91;100;93262.41;;;;
2022/04/09 01:24:04;;;;;;;1.45;0.8;;;;;;;9.91;100;93262.41;;;;
2022/04/09 01:25:05;;;;;;;1.45;0.8;;;;;;;9.91;100;93262.41;;;;
2022/04/09 01:26:06;;;;;;;1.45;0.8;;;;;;;9.91;100;93262.41;;;;
2022/04/09 01:27:07;;;;;;;1.45;0.8;;;;;;;9.91;100;93262.41;;;;
2022/04/09 01:28:07;;;;;;;1.45;0.8;;;;;;;9.91;100;93262.41;;;;
2022/04/09 01:29:08;;;;;;;1.45;0.8;;;;;;;9.91;100;93262.41;;;;
2022/04/09 01:30:09;;;;;;;1.55;0.8;;;;;;;8.87;100;93324.05;;;;
2022/04/09 01:31:10;;;;;;;1.55;0.8;;;;;;;8.87;100;93324.05;;;;
2022/04/09 01:32:11;;;;;;;1.55;0.8;;;;;;;8.87;100;93324.05;;;;
2022/04/09 01:33:12;;;;;;;1.55;0.8;;;;;;;8.87;100;93324.05;;;;
2022/04/09 01:34:16;;;;;;;1.55;0.8;;;;;;;8.87;100;93324.05;;;;
2022/04/09 01:35:16;;;;;;;1.55;0.8;;;;;;;8.87;100;93324.05;;;;
2022/04/09 01:36:17;;;;;;;1.55;0.8;;;;;;;8.87;100;93324.05;;;;
2022/04/09 01:37:17;;;;;;;1.55;0.8;;;;;;;8.87;100;93324.05;;;;
2022/04/09 01:38:18;;;;;;;1.55;0.8;;;;;;;8.87;100;93324.05;;;;
2022/04/09 01:39:18;;;;;;;1.55;0.8;;;;;;;8.87;100;93324.05;;;;
2022/04/09 01:40:19;;;;;;;0.5;0.5;;;;;;;7.78;100;93365.98;;;;
2022/04/09 01:41:19;;;;;;;0.5;0.5;;;;;;;7.78;100;93365.98;;;;
2022/04/09 01:42:21;;;;;;;0.5;0.5;;;;;;;7.78;100;93365.98;;;;
2022/04/09 01:43:22;;;;;;;0.5;0.5;;;;;;;7.78;100;93365.98;;;;
2022/04/09 01:44:22;;;;;;;0.5;0.5;;;;;;;7.78;100;93365.98;;;;
2022/04/09 01:45:23;;;;;;;0.5;0.5;;;;;;;7.78;100;93365.98;;;;
2022/04/09 01:46:23;;;;;;;0.5;0.5;;;;;;;7.78;100;93365.98;;;;
2022/04/09 01:47:24;;;;;;;0.5;0.5;;;;;;;7.78;100;93365.98;;;;
2022/04/09 01:48:24;;;;;;;0.5;0.5;;;;;;;7.78;100;93365.98;;;;
2022/04/09 01:49:25;;;;;;;0.5;0.5;;;;;;;7.78;100;93365.98;;;;
2022/04/09 01:50:26;;;;;;;0.5;0.5;;;;;;;7.78;100;93365.98;;;;
2022/04/09 01:51:26;;;;;;;0.5;0.4;;;;;;;7.04;100;93406.22;;;;
2022/04/09 01:52:27;;;;;;;0.5;0.4;;;;;;;7.04;100;93406.22;;;;
2022/04/09 01:53:27;;;;;;;0.5;0.4;;;;;;;7.04;100;93406.22;;;;
2022/04/09 01:54:28;;;;;;;0.5;0.4;;;;;;;7.04;100;93406.22;;;;
2022/04/09 01:55:28;;;;;;;0.5;0.4;;;;;;;7.04;100;93406.22;;;;
2022/04/09 01:56:29;;;;;;;0.5;0.4;;;;;;;7.04;100;93406.22;;;;
2022/04/09 01:57:29;;;;;;;0.5;0.4;;;;;;;7.04;100;93406.22;;;;
2022/04/09 01:58:30;;;;;;;0.5;0.4;;;;;;;7.04;100;93406.22;;;;
2022/04/09 01:59:31;;;;;;;0.5;0.4;;;;;;;7.04;100;93406.22;;;;
2022/04/09 02:00:32;;;;;;;0.5;0.4;;;;;;;7.04;100;93406.22;;;;
2022/04/09 02:01:33;;;;;;;0.5;0.4;;;;;;;7.04;100;93406.22;;;;
2022/04/09 02:02:33;;;;;;;0.5;0.4;;;;;;;7.04;100;93406.22;;;;
2022/04/09 02:03:34;;;;;;;0.5;0.4;;;;;;;7.04;100;93406.22;;;;
2022/04/09 02:04:34;;;;;;;0.5;0.4;;;;;;;7.04;100;93406.22;;;;
2022/04/09 02:05:35;;;;;;;0.5;0.4;;;;;;;7.04;100;93406.22;;;;
2022/04/09 02:06:36;;;;;;;0.5;0.4;;;;;;;7.04;100;93406.22;;;;
2022/04/09 02:07:36;;;;;;;0.5;0.4;;;;;;;7.04;100;93406.22;;;;
2022/04/09 02:08:37;;;;;;;0.5;0.4;;;;;;;7.04;100;93406.22;;;;
2022/04/09 02:09:38;;;;;;;0.5;0.4;;;;;;;7.04;100;93406.22;;;;
2022/04/09 02:10:38;;;;;;;0.5;0.4;;;;;;;7.04;100;93406.22;;;;
2022/04/09 02:11:39;;;;;;;0.5;0.4;;;;;;;7.04;100;93406.22;;;;
2022/04/09 02:12:40;;;;;;;0.7;0.6;;;;;;;5.98;100;93547.39;;;;
2022/04/09 02:13:41;;;;;;;0.7;0.6;;;;;;;5.98;100;93547.39;;;;
2022/04/09 02:14:42;;;;;;;0.7;0.6;;;;;;;5.98;100;93547.39;;;;
2022/04/09 02:15:42;;;;;;;0.7;0.6;;;;;;;5.98;100;93547.39;;;;
2022/04/09 02:16:43;;;;;;;0.7;0.6;;;;;;;5.98;100;93547.39;;;;
2022/04/09 02:17:43;;;;;;;0.7;0.6;;;;;;;5.98;100;93547.39;;;;
2022/04/09 02:18:44;;;;;;;0.7;0.6;;;;;;;5.98;100;93547.39;;;;
2022/04/09 02:19:44;;;;;;;0.7;0.6;;;;;;;5.98;100;93547.39;;;;
2022/04/09 02:20:45;;;;;;;0.7;0.6;;;;;;;5.98;100;93547.39;;;;
2022/04/09 02:21:45;;;;;;;0.7;0.6;;;;;;;5.98;100;93547.39;;;;
2022/04/09 02:22:46;;;;;;;0.5;0.5;;;;;;;5.11;100;93631.25;;;;
2022/04/09 02:23:46;;;;;;;0.5;0.5;;;;;;;5.11;100;93631.25;;;;
2022/04/09 02:24:47;;;;;;;0.5;0.5;;;;;;;5.11;100;93631.25;;;;
2022/04/09 02:25:50;;;;;;;0.5;0.5;;;;;;;5.11;100;93631.25;;;;
2022/04/09 02:26:50;;;;;;;0.5;0.5;;;;;;;5.11;100;93631.25;;;;
2022/04/09 02:27:51;;;;;;;0.5;0.5;;;;;;;5.11;100;93631.25;;;;
2022/04/09 02:28:52;;;;;;;0.5;0.5;;;;;;;5.11;100;93631.25;;;;
2022/04/09 02:29:52;;;;;;;0.5;0.5;;;;;;;5.11;100;93631.25;;;;
2022/04/09 02:30:53;;;;;;;0.5;0.5;;;;;;;5.11;100;93631.25;;;;
2022/04/09 02:31:53;;;;;;;0.5;0.5;;;;;;;5.11;100;93631.25;;;;
2022/04/09 02:32:54;;;;;;;0.5;0.5;;;;;;;5.11;100;93631.25;;;;
2022/04/09 02:33:55;;;;;;;0.8;0.8;;;;;;;4.05;100;93644.39;;;;
2022/04/09 02:34:56;;;;;;;0.8;0.8;;;;;;;4.05;100;93644.39;;;;
2022/04/09 02:35:56;;;;;;;0.8;0.8;;;;;;;4.05;100;93644.39;;;;
2022/04/09 02:36:57;;;;;;;0.8;0.8;;;;;;;4.05;100;93644.39;;;;
2022/04/09 02:37:57;;;;;;;0.8;0.8;;;;;;;4.05;100;93644.39;;;;
2022/04/09 02:38:58;;;;;;;0.8;0.8;;;;;;;4.05;100;93644.39;;;;
2022/04/09 02:39:59;;;;;;;0.8;0.8;;;;;;;4.05;100;93644.39;;;;
2022/04/09 02:41:00;;;;;;;0.8;0.8;;;;;;;4.05;100;93644.39;;;;
2022/04/09 02:42:00;;;;;;;0.8;0.8;;;;;;;4.05;100;93644.39;;;;
2022/04/09 02:43:01;;;;;;;0.8;0.8;;;;;;;4.05;100;93644.39;;;;
2022/04/09 02:44:02;;;;;;;0.8;0.8;;;;;;;4.05;100;93644.39;;;;
2022/04/09 02:45:03;;;;;;;1;1;;;;;;;3.15;100;93690.78;;;;
2022/04/09 02:46:05;;;;;;;1;1;;;;;;;3.15;100;93690.78;;;;
2022/04/09 02:47:05;;;;;;;1;1;;;;;;;3.15;100;93690.78;;;;
2022/04/09 02:48:06;;;;;;;1;1;;;;;;;3.15;100;93690.78;;;;
2022/04/09 02:49:07;;;;;;;1;1;;;;;;;3.15;100;93690.78;;;;
2022/04/09 02:50:08;;;;;;;1;1;;;;;;;3.15;100;93690.78;;;;
2022/04/09 02:51:09;;;;;;;1;1;;;;;;;3.15;100;93690.78;;;;
2022/04/09 02:52:09;;;;;;;1;1;;;;;;;3.15;100;93690.78;;;;
2022/04/09 02:53:10;;;;;;;1;1;;;;;;;3.15;100;93690.78;;;;
2022/04/09 02:54:15;;;;;;;1;1;;;;;;;3.15;100;93690.78;;;;
2022/04/09 02:55:16;;;;;;;1.7;1.25;;;;;;;2.66;100;93769.33;;;;
2022/04/09 02:56:16;;;;;;;1.7;1.25;;;;;;;2.66;100;93769.33;;;;
2022/04/09 02:57:16;;;;;;;1.7;1.25;;;;;;;2.66;100;93769.33;;;;
2022/04/09 02:58:17;;;;;;;1.7;1.25;;;;;;;2.66;100;93769.33;;;;
2022/04/09 02:59:17;;;;;;;1.7;1.25;;;;;;;2.66;100;93769.33;;;;
2022/04/09 03:00:18;;;;;;;1.7;1.25;;;;;;;2.66;100;93769.33;;;;
2022/04/09 03:01:18;;;;;;;1.7;1.25;;;;;;;2.66;100;93769.33;;;;
2022/04/09 03:02:19;;;;;;;1.7;1.25;;;;;;;2.66;100;93769.33;;;;
2022/04/09 03:03:19;;;;;;;1.7;1.25;;;;;;;2.66;100;93769.33;;;;
2022/04/09 03:04:20;;;;;;;1.7;1.25;;;;;;;2.66;100;93769.33;;;;
2022/04/09 03:05:20;;;;;;;1.7;1.25;;;;;;;2.66;100;93769.33;;;;
2022/04/09 03:06:21;;;;;;;1.5;1.4;;;;;;;2.45;100;93856.34;;;;
2022/04/09 03:07:22;;;;;;;1.5;1.4;;;;;;;2.45;100;93856.34;;;;
2022/04/09 03:08:22;;;;;;;1.5;1.4;;;;;;;2.45;100;93856.34;;;;
2022/04/09 03:09:23;;;;;;;1.5;1.4;;;;;;;2.45;100;93856.34;;;;
2022/04/09 03:10:23;;;;;;;1.5;1.4;;;;;;;2.45;100;93856.34;;;;
2022/04/09 03:11:24;;;;;;;1.5;1.4;;;;;;;2.45;100;93856.34;;;;
2022/04/09 03:12:24;;;;;;;1.5;1.4;;;;;;;2.45;100;93856.34;;;;
2022/04/09 03:13:25;;;;;;;1.5;1.4;;;;;;;2.45;100;93856.34;;;;
2022/04/09 03:14:25;;;;;;;1.5;1.4;;;;;;;2.45;100;93856.34;;;;
2022/04/09 03:15:26;;;;;;;1.5;1.4;;;;;;;2.45;100;93856.34;;;;
2022/04/09 03:16:26;;;;;;;1.65;1.55;;;;;;;2.32;100;93910.55;;;;
2022/04/09 03:17:27;;;;;;;1.65;1.55;;;;;;;2.32;100;93910.55;;;;
2022/04/09 03:18:28;;;;;;;1.65;1.55;;;;;;;2.32;100;93910.55;;;;
2022/04/09 03:19:28;;;;;;;1.65;1.55;;;;;;;2.32;100;93910.55;;;;
2022/04/09 03:20:28;;;;;;;1.65;1.55;;;;;;;2.32;100;93910.55;;;;
2022/04/09 03:21:30;;;;;;;1.65;1.55;;;;;;;2.32;100;93910.55;;;;
2022/04/09 03:22:30;;;;;;;1.65;1.55;;;;;;;2.32;100;93910.55;;;;
2022/04/09 03:23:31;;;;;;;1.65;1.55;;;;;;;2.32;100;93910.55;;;;
2022/04/09 03:24:31;;;;;;;1.65;1.55;;;;;;;2.32;100;93910.55;;;;
2022/04/09 03:25:32;;;;;;;1.65;1.55;;;;;;;2.32;100;93910.55;;;;
2022/04/09 03:26:32;;;;;;;1.65;1.55;;;;;;;2.32;100;93910.55;;;;
2022/04/09 03:27:33;;;;;;;1.7;1.45;;;;;;;2.32;100;93928.27;;;;
2022/04/09 03:28:35;;;;;;;1.7;1.45;;;;;;;2.32;100;93928.27;;;;
2022/04/09 03:29:36;;;;;;;1.7;1.45;;;;;;;2.32;100;93928.27;;;;
2022/04/09 03:30:36;;;;;;;1.7;1.45;;;;;;;2.32;100;93928.27;;;;
2022/04/09 03:31:36;;;;;;;1.7;1.45;;;;;;;2.32;100;93928.27;;;;
2022/04/09 03:32:37;;;;;;;1.7;1.45;;;;;;;2.32;100;93928.27;;;;
2022/04/09 03:33:40;;;;;;;1.7;1.45;;;;;;;2.32;100;93928.27;;;;
2022/04/09 03:34:41;;;;;;;1.7;1.45;;;;;;;2.32;100;93928.27;;;;
2022/04/09 03:35:41;;;;;;;1.7;1.45;;;;;;;2.32;100;93928.27;;;;
2022/04/09 03:36:42;;;;;;;1.7;1.45;;;;;;;2.32;100;93928.27;;;;
2022/04/09 03:37:44;;;;;;;2.15;1.95;;;;;;;2.18;100;93993.83;;;;
2022/04/09 03:38:44;;;;;;;2.15;1.95;;;;;;;2.18;100;93993.83;;;;
2022/04/09 03:39:45;;;;;;;2.15;1.95;;;;;;;2.18;100;93993.83;;;;
2022/04/09 03:40:46;;;;;;;2.15;1.95;;;;;;;2.18;100;93993.83;;;;
2022/04/09 03:41:47;;;;;;;2.15;1.95;;;;;;;2.18;100;93993.83;;;;
2022/04/09 03:42:47;;;;;;;2.15;1.95;;;;;;;2.18;100;93993.83;;;;
2022/04/09 03:43:49;;;;;;;2.15;1.95;;;;;;;2.18;100;93993.83;;;;
2022/04/09 03:44:49;;;;;;;2.15;1.95;;;;;;;2.18;100;93993.83;;;;
2022/04/09 03:45:50;;;;;;;2.15;1.95;;;;;;;2.18;100;93993.83;;;;
2022/04/09 03:46:50;;;;;;;2.15;1.95;;;;;;;2.18;100;93993.83;;;;
2022/04/09 03:47:56;;;;;;;2.15;1.95;;;;;;;2.18;100;93993.83;;;;
2022/04/09 03:48:57;;;;;;;2.7;2.45;;;;;;;2.08;100;94060.05;;;;
2022/04/09 03:49:57;;;;;;;2.7;2.45;;;;;;;2.08;100;94060.05;;;;
2022/04/09 03:50:59;;;;;;;2.7;2.45;;;;;;;2.08;100;94060.05;;;;
2022/04/09 03:52:00;;;;;;;2.7;2.45;;;;;;;2.08;100;94060.05;;;;
2022/04/09 03:53:00;;;;;;;2.7;2.45;;;;;;;2.08;100;94060.05;;;;
2022/04/09 03:54:01;;;;;;;2.7;2.45;;;;;;;2.08;100;94060.05;;;;
2022/04/09 03:55:01;;;;;;;2.7;2.45;;;;;;;2.08;100;94060.05;;;;
2022/04/09 03:56:02;;;;;;;2.7;2.45;;;;;;;2.08;100;94060.05;;;;
2022/04/09 03:57:04;;;;;;;2.7;2.45;;;;;;;2.08;100;94060.05;;;;
2022/04/09 03:58:04;;;;;;;2.7;2.45;;;;;;;2.08;100;94060.05;;;;
2022/04/09 03:59:05;;;;;;;2.75;2.55;;;;;;;2.08;100;94068.86;;;;
2022/04/09 04:00:05;;;;;;;2.75;2.55;;;;;;;2.08;100;94068.86;;;;
2022/04/09 04:01:07;;;;;;;2.75;2.55;;;;;;;2.08;100;94068.86;;;;
2022/04/09 04:02:08;;;;;;;2.75;2.55;;;;;;;2.08;100;94068.86;;;;
2022/04/09 04:03:10;;;;;;;2.75;2.55;;;;;;;2.08;100;94068.86;;;;
2022/04/09 04:04:11;;;;;;;2.75;2.55;;;;;;;2.08;100;94068.86;;;;
2022/04/09 04:05:11;;;;;;;2.75;2.55;;;;;;;2.08;100;94068.86;;;;
2022/04/09 04:06:12;;;;;;;2.75;2.55;;;;;;;2.08;100;94068.86;;;;
2022/04/09 04:07:13;;;;;;;2.75;2.55;;;;;;;2.08;100;94068.86;;;;
2022/04/09 04:08:13;;;;;;;2.75;2.55;;;;;;;2.08;100;94068.86;;;;
2022/04/09 04:09:16;;;;;;;2.75;2.55;;;;;;;2.08;100;94068.86;;;;
2022/04/09 04:10:17;;;;;;;4.1;3.3;;;;;;;2.19;100;94098.8;;;;
2022/04/09 04:11:17;;;;;;;4.1;3.3;;;;;;;2.19;100;94098.8;;;;
2022/04/09 04:12:18;;;;;;;4.1;3.3;;;;;;;2.19;100;94098.8;;;;
2022/04/09 04:13:19;;;;;;;4.1;3.3;;;;;;;2.19;100;94098.8;;;;
2022/04/09 04:14:19;;;;;;;4.1;3.3;;;;;;;2.19;100;94098.8;;;;
2022/04/09 04:15:20;;;;;;;4.1;3.3;;;;;;;2.19;100;94098.8;;;;
2022/04/09 04:16:20;;;;;;;4.1;3.3;;;;;;;2.19;100;94098.8;;;;
2022/04/09 04:17:21;;;;;;;4.1;3.3;;;;;;;2.19;100;94098.8;;;;
2022/04/09 04:18:21;;;;;;;4.1;3.3;;;;;;;2.19;100;94098.8;;;;
2022/04/09 04:19:22;;;;;;;4.1;3.3;;;;;;;2.19;100;94098.8;;;;
2022/04/09 04:20:23;;;;;;;4.1;3.3;;;;;;;2.19;100;94098.8;;;;
2022/04/09 04:21:24;;;;;;;3.75;3.45;;;;;;;2.26;100;94138.19;;;;
2022/04/09 04:22:24;;;;;;;3.75;3.45;;;;;;;2.26;100;94138.19;;;;
2022/04/09 04:23:25;;;;;;;3.75;3.45;;;;;;;2.26;100;94138.19;;;;
2022/04/09 04:24:25;;;;;;;3.75;3.45;;;;;;;2.26;100;94138.19;;;;
2022/04/09 04:25:26;;;;;;;3.75;3.45;;;;;;;2.26;100;94138.19;;;;
2022/04/09 04:26:26;;;;;;;3.75;3.45;;;;;;;2.26;100;94138.19;;;;
2022/04/09 04:27:27;;;;;;;3.75;3.45;;;;;;;2.26;100;94138.19;;;;
2022/04/09 04:28:27;;;;;;;3.75;3.45;;;;;;;2.26;100;94138.19;;;;
2022/04/09 04:29:28;;;;;;;3.75;3.45;;;;;;;2.26;100;94138.19;;;;
2022/04/09 04:30:28;;;;;;;3.75;3.45;;;;;;;2.26;100;94138.19;;;;
2022/04/09 04:31:29;;;;;;;3.35;3.05;;;;;;;2.31;100;94165.91;;;;
2022/04/09 04:32:29;;;;;;;3.35;3.05;;;;;;;2.31;100;94165.91;;;;
2022/04/09 04:33:31;;;;;;;3.35;3.05;;;;;;;2.31;100;94165.91;;;;
2022/04/09 04:34:31;;;;;;;3.35;3.05;;;;;;;2.31;100;94165.91;;;;
2022/04/09 04:35:31;;;;;;;3.35;3.05;;;;;;;2.31;100;94165.91;;;;
2022/04/09 04:36:32;;;;;;;3.35;3.05;;;;;;;2.31;100;94165.91;;;;
2022/04/09 04:37:32;;;;;;;3.35;3.05;;;;;;;2.31;100;94165.91;;;;
2022/04/09 04:38:37;;;;;;;3.35;3.05;;;;;;;2.31;100;94165.91;;;;
2022/04/09 04:39:38;;;;;;;3.35;3.05;;;;;;;2.31;100;94165.91;;;;
2022/04/09 04:40:38;;;;;;;3.35;3.05;;;;;;;2.31;100;94165.91;;;;
2022/04/09 04:41:39;;;;;;;3.35;3.05;;;;;;;2.31;100;94165.91;;;;
2022/04/09 04:42:40;;;;;;;3.35;3.05;;;;;;;2.36;100;94208.7;;;;
2022/04/09 04:43:40;;;;;;;3.35;3.05;;;;;;;2.36;100;94208.7;;;;
2022/04/09 04:44:41;;;;;;;3.35;3.05;;;;;;;2.36;100;94208.7;;;;
2022/04/09 04:45:41;;;;;;;3.35;3.05;;;;;;;2.36;100;94208.7;;;;
2022/04/09 04:46:42;;;;;;;3.35;3.05;;;;;;;2.36;100;94208.7;;;;
2022/04/09 04:47:42;;;;;;;3.35;3.05;;;;;;;2.36;100;94208.7;;;;
2022/04/09 04:48:44;;;;;;;3.35;3.05;;;;;;;2.36;100;94208.7;;;;
2022/04/09 04:49:45;;;;;;;3.35;3.05;;;;;;;2.36;100;94208.7;;;;
2022/04/09 04:50:45;;;;;;;3.35;3.05;;;;;;;2.36;100;94208.7;;;;
2022/04/09 04:51:46;;;;;;;3.35;3.05;;;;;;;2.36;100;94208.7;;;;
2022/04/09 04:52:47;;;;;;;3.6;3.25;;;;;;;2.48;100;94234.99;;;;
2022/04/09 04:53:48;;;;;;;3.6;3.25;;;;;;;2.48;100;94234.99;;;;
2022/04/09 04:54:48;;;;;;;3.6;3.25;;;;;;;2.48;100;94234.99;;;;
2022/04/09 04:55:48;;;;;;;3.6;3.25;;;;;;;2.48;100;94234.99;;;;
2022/04/09 04:56:49;;;;;;;3.6;3.25;;;;;;;2.48;100;94234.99;;;;
2022/04/09 04:57:50;;;;;;;3.6;3.25;;;;;;;2.48;100;94234.99;;;;
2022/04/09 04:58:51;;;;;;;3.6;3.25;;;;;;;2.48;100;94234.99;;;;
2022/04/09 04:59:52;;;;;;;3.6;3.25;;;;;;;2.48;100;94234.99;;;;
2022/04/09 05:00:52;;;;;;;3.6;3.25;;;;;;;2.48;100;94234.99;;;;
2022/04/09 05:01:53;;;;;;;3.6;3.25;;;;;;;2.48;100;94234.99;;;;
2022/04/09 05:02:53;;;;;;;3.6;3.25;;;;;;;2.48;100;94234.99;;;;
2022/04/09 05:03:54;;;;;;;3.5;2.900001;;;;;;;2.53;100;94260.47;;;;
2022/04/09 05:04:54;;;;;;;3.5;2.900001;;;;;;;2.53;100;94260.47;;;;
2022/04/09 05:05:55;;;;;;;3.5;2.900001;;;;;;;2.53;100;94260.47;;;;
2022/04/09 05:06:55;;;;;;;3.5;2.900001;;;;;;;2.53;100;94260.47;;;;
2022/04/09 05:07:56;;;;;;;3.5;2.900001;;;;;;;2.53;100;94260.47;;;;
2022/04/09 05:08:57;;;;;;;3.5;2.900001;;;;;;;2.53;100;94260.47;;;;
2022/04/09 05:09:57;;;;;;;3.5;2.900001;;;;;;;2.53;100;94260.47;;;;
2022/04/09 05:10:58;;;;;;;3.5;2.900001;;;;;;;2.53;100;94260.47;;;;
2022/04/09 05:11:58;;;;;;;3.5;2.900001;;;;;;;2.53;100;94260.47;;;;
2022/04/09 05:12:59;;;;;;;3.5;2.900001;;;;;;;2.53;100;94260.47;;;;
2022/04/09 05:14:00;;;;;;;3.4;3.1;;;;;;;2.57;100;94302.15;;;;
2022/04/09 05:15:01;;;;;;;3.4;3.1;;;;;;;2.57;100;94302.15;;;;
2022/04/09 05:16:03;;;;;;;3.4;3.1;;;;;;;2.57;100;94302.15;;;;
2022/04/09 05:17:04;;;;;;;3.4;3.1;;;;;;;2.57;100;94302.15;;;;
2022/04/09 05:18:04;;;;;;;3.4;3.1;;;;;;;2.57;100;94302.15;;;;
2022/04/09 05:19:05;;;;;;;3.4;3.1;;;;;;;2.57;100;94302.15;;;;
2022/04/09 05:20:06;;;;;;;3.4;3.1;;;;;;;2.57;100;94302.15;;;;
2022/04/09 05:21:09;;;;;;;3.4;3.1;;;;;;;2.57;100;94302.15;;;;
2022/04/09 05:22:10;;;;;;;3.4;3.1;;;;;;;2.57;100;94302.15;;;;
2022/04/09 05:23:10;;;;;;;3.4;3.1;;;;;;;2.57;100;94302.15;;;;
2022/04/09 05:24:11;;;;;;;3.4;3.1;;;;;;;2.57;100;94302.15;;;;
2022/04/09 05:25:13;;;;;;;4.699999;3.55;;;;;;;2.53;100;94349.3;;;;
2022/04/09 05:26:15;;;;;;;4.699999;3.55;;;;;;;2.53;100;94349.3;;;;
2022/04/09 05:27:15;;;;;;;4.699999;3.55;;;;;;;2.53;100;94349.3;;;;
2022/04/09 05:28:16;;;;;;;4.699999;3.55;;;;;;;2.53;100;94349.3;;;;
2022/04/09 05:29:16;;;;;;;4.699999;3.55;;;;;;;2.53;100;94349.3;;;;
2022/04/09 05:30:17;;;;;;;4.699999;3.55;;;;;;;2.53;100;94349.3;;;;
2022/04/09 05:31:19;;;;;;;4.699999;3.55;;;;;;;2.53;100;94349.3;;;;
2022/04/09 05:32:19;;;;;;;4.699999;3.55;;;;;;;2.53;100;94349.3;;;;
2022/04/09 05:33:20;;;;;;;4.699999;3.55;;;;;;;2.53;100;94349.3;;;;
2022/04/09 05:34:20;;;;;;;4.699999;3.55;;;;;;;2.53;100;94349.3;;;;
2022/04/09 05:35:21;;;;;;;4.699999;3.55;;;;;;;2.53;100;94349.3;;;;
2022/04/09 05:36:21;;;;;;;4.249999;3.8;;;;;;;2.57;100;94380.75;;;;
2022/04/09 05:37:22;;;;;;;4.249999;3.8;;;;;;;2.57;100;94380.75;;;;
2022/04/09 05:38:23;;;;;;;4.249999;3.8;;;;;;;2.57;100;94380.75;;;;
2022/04/09 05:39:23;;;;;;;4.249999;3.8;;;;;;;2.57;100;94380.75;;;;
2022/04/09 05:40:24;;;;;;;4.249999;3.8;;;;;;;2.57;100;94380.75;;;;
2022/04/09 05:41:24;;;;;;;4.249999;3.8;;;;;;;2.57;100;94380.75;;;;
2022/04/09 05:42:25;;;;;;;4.249999;3.8;;;;;;;2.57;100;94380.75;;;;
2022/04/09 05:43:26;;;;;;;4.249999;3.8;;;;;;;2.57;100;94380.75;;;;
2022/04/09 05:44:27;;;;;;;4.249999;3.8;;;;;;;2.57;100;94380.75;;;;
2022/04/09 05:45:27;;;;;;;4.249999;3.8;;;;;;;2.57;100;94380.75;;;;
2022/04/09 05:46:28;;;;;;;6.35;4.45;;;;;;;2.69;100;94412.79;;;;
2022/04/09 05:47:29;;;;;;;6.35;4.45;;;;;;;2.69;100;94412.79;;;;
2022/04/09 05:48:30;;;;;;;6.35;4.45;;;;;;;2.69;100;94412.79;;;;
2022/04/09 05:49:30;;;;;;;6.35;4.45;;;;;;;2.69;100;94412.79;;;;
2022/04/09 05:50:31;;;;;;;6.35;4.45;;;;;;;2.69;100;94412.79;;;;
2022/04/09 05:51:32;;;;;;;6.35;4.45;;;;;;;2.69;100;94412.79;;;;
2022/04/09 05:52:33;;;;;;;6.35;4.45;;;;;;;2.69;100;94412.79;;;;
2022/04/09 05:53:33;;;;;;;6.35;4.45;;;;;;;2.69;100;94412.79;;;;
2022/04/09 05:54:34;;;;;;;6.35;4.45;;;;;;;2.69;100;94412.79;;;;
2022/04/09 05:55:34;;;;;;;6.35;4.45;;;;;;;2.69;100;94412.79;;;;
2022/04/09 05:56:36;;;;;;;6.35;4.45;;;;;;;2.69;100;94412.79;;;;
2022/04/09 05:57:37;;;;;;;6.35;4.45;;;;;;;2.69;100;94412.79;;;;
2022/04/09 05:58:41;;;;;;;6.35;4.45;;;;;;;2.69;100;94412.79;;;;
2022/04/09 05:59:41;;;;;;;6.35;4.45;;;;;;;2.69;100;94412.79;;;;
2022/04/09 06:00:42;;;;;;;6.35;4.45;;;;;;;2.69;100;94412.79;;;;
2022/04/09 06:01:43;;;;;;;6.35;4.45;;;;;;;2.69;100;94412.79;;;;
2022/04/09 06:02:44;;;;;;;6.35;4.45;;;;;;;2.69;100;94412.79;;;;
2022/04/09 06:03:44;;;;;;;6.35;4.45;;;;;;;2.69;100;94412.79;;;;
2022/04/09 06:04:45;;;;;;;6.35;4.45;;;;;;;2.69;100;94412.79;;;;
2022/04/09 06:05:45;;;;;;;6.35;4.45;;;;;;;2.69;100;94412.79;;;;
2022/04/09 06:06:46;;;;;;;6.35;4.45;;;;;;;2.69;100;94412.79;;;;
2022/04/09 06:07:47;;;;;;;6.249999;4.749999;;;;;;;2.9;100;94439.67;;;;
2022/04/09 06:08:47;;;;;;;6.249999;4.749999;;;;;;;2.9;100;94439.67;;;;
2022/04/09 06:09:50;;;;;;;6.249999;4.749999;;;;;;;2.9;100;94439.67;;;;
2022/04/09 06:10:51;;;;;;;6.249999;4.749999;;;;;;;2.9;100;94439.67;;;;
2022/04/09 06:11:51;;;;;;;6.249999;4.749999;;;;;;;2.9;100;94439.67;;;;
2022/04/09 06:12:51;;;;;;;6.249999;4.749999;;;;;;;2.9;100;94439.67;;;;
2022/04/09 06:13:52;;;;;;;6.249999;4.749999;;;;;;;2.9;100;94439.67;;;;
2022/04/09 06:14:52;;;;;;;6.249999;4.749999;;;;;;;2.9;100;94439.67;;;;
2022/04/09 06:15:53;;;;;;;6.249999;4.749999;;;;;;;2.9;100;94439.67;;;;
2022/04/09 06:16:53;;;;;;;6.249999;4.749999;;;;;;;2.9;100;94439.67;;;;
2022/04/09 06:17:54;;;;;;;6.249999;4.749999;;;;;;;2.9;100;94439.67;;;;
2022/04/09 06:18:54;;;;;;;7.05;6;;;;;;;3.31;100;94472.17;;;;
2022/04/09 06:19:55;;;;;;;7.05;6;;;;;;;3.31;100;94472.17;;;;